< Typhoon 197133 1971 Season Typhoon 197135 >
Typhoon 197134 (HESTER)
General InformationTrack Information on Google Maps || Disaster Info.ResourceGoogle EarthGE AnimationAtom FeedGeoJSON
Detalied Best Track (Time Zone = UTC)
Year Month Day Hour Lat. Long. Pressure (hPa) Wind (kt) Class Image Chart
1971 10 18 00 10.5 134.0 1008 0 2 -- Chart
1971 10 18 06 10.3 133.2 1008 0 2 -- Chart
1971 10 18 12 10.0 132.4 1008 0 2 -- Chart
1971 10 18 18 9.7 131.4 1008 0 2 -- Chart
1971 10 19 00 9.5 130.5 1008 0 2 -- Chart
1971 10 19 06 9.4 129.7 1004 0 2 -- Chart
1971 10 19 12 9.3 128.9 1000 0 2 -- Chart
1971 10 19 18 9.3 127.8 996 0 2 -- Chart
1971 10 20 00 9.3 127.0 990 0 9 -- Chart
1971 10 20 06 9.5 125.5 985 0 9 -- Chart
1971 10 20 12 9.7 124.3 985 0 9 -- Chart
1971 10 20 18 9.8 122.5 990 0 9 -- Chart
1971 10 21 00 9.8 121.2 990 0 9 -- Chart
1971 10 21 06 10.2 120.0 985 0 9 -- Chart
1971 10 21 12 11.0 118.5 980 0 9 -- Chart
1971 10 21 18 11.7 116.6 975 0 9 -- Chart
1971 10 22 00 12.4 115.2 975 0 9 -- Chart
1971 10 22 06 13.2 113.4 975 0 9 -- Chart
1971 10 22 12 13.7 112.0 975 0 9 -- Chart
1971 10 22 18 14.3 110.3 970 0 9 -- Chart
1971 10 23 00 14.7 109.5 970 0 9 -- Chart
1971 10 23 06 15.4 108.3 975 0 9 -- Chart
1971 10 23 12 16.0 107.0 990 0 9 -- Chart
1971 10 23 18 17.0 105.5 994 0 9 -- Chart
1971 10 24 00 17.7 104.2 1000 0 2 -- Chart
1971 10 24 06 18.8 103.0 1004 0 2 -- Chart
Japan Meteorological Agency Best Track Data | Correction Date : 2013-03-19
< Typhoon 197133 1971 Season Typhoon 197135 >

Help